Time;durP1;ratioP1;P1;durP2;ratioP2;P2;SDS_P1;SDS_P2;PMS_P1;PMS_P2;Temp;Humidity;BMP_temperature;BMP_pressure;BME280_temperature;BME280_humidity;BME280_pressure;Samples;Min_cycle;Max_cycle;Signal;HPM_P1;HPM_P2
2021/09/23 00:00:21;;;;;;;8.75;6.47;;;11.30;71.90;;;;;;5140065;27;20042;-38
2021/09/23 00:03:00;;;;;;;12.05;6.72;;;11.30;71.80;;;;;;5140408;27;20317;-38
2021/09/23 00:05:29;;;;;;;8.40;6.15;;;11.20;71.80;;;;;;5139985;27;20410;-39
2021/09/23 00:07:57;;;;;;;9.70;6.90;;;11.20;71.80;;;;;;5139584;27;20030;-38
2021/09/23 00:10:25;;;;;;;13.50;6.25;;;11.20;71.90;;;;;;5140273;27;20075;-39
2021/09/23 00:12:52;;;;;;;9.18;6.43;;;11.20;71.90;;;;;;5140011;27;20027;-38
2021/09/23 00:15:19;;;;;;;10.50;6.28;;;11.20;72.00;;;;;;5140056;27;20322;-39
2021/09/23 00:17:48;;;;;;;9.98;6.40;;;11.20;72.00;;;;;;5140000;27;20034;-38
2021/09/23 00:20:15;;;;;;;9.30;6.40;;;11.20;72.10;;;;;;5139627;27;20028;-38
2021/09/23 00:22:41;;;;;;;8.52;6.55;;;11.20;72.10;;;;;;5139819;27;20386;-37
2021/09/23 00:25:08;;;;;;;10.18;6.82;;;11.10;72.10;;;;;;5139833;27;20030;-37
2021/09/23 00:27:34;;;;;;;9.82;6.25;;;11.10;72.20;;;;;;5139092;27;20067;-37
2021/09/23 00:29:59;;;;;;;13.07;6.70;;;11.10;72.20;;;;;;5139474;27;20119;-38
2021/09/23 00:32:25;;;;;;;10.23;6.68;;;11.10;72.60;;;;;;5139646;27;20027;-37
2021/09/23 00:34:50;;;;;;;9.48;6.75;;;11.10;72.30;;;;;;5121100;27;20054;-39
2021/09/23 00:37:16;;;;;;;10.13;6.80;;;11.10;72.40;;;;;;5139524;27;20032;-37
2021/09/23 00:39:42;;;;;;;11.70;6.80;;;11.20;72.50;;;;;;5139683;27;20027;-37
2021/09/23 00:42:08;;;;;;;8.43;6.10;;;11.20;72.50;;;;;;5139377;27;20094;-39
2021/09/23 00:44:34;;;;;;;12.32;7.03;;;11.20;72.50;;;;;;5139256;27;20050;-37
2021/09/23 00:47:00;;;;;;;10.80;6.75;;;11.20;72.60;;;;;;5137887;27;20042;-39
2021/09/23 00:49:25;;;;;;;10.65;7.38;;;11.20;72.50;;;;;;5139124;27;20055;-37
2021/09/23 00:51:51;;;;;;;10.82;7.00;;;11.20;72.40;;;;;;5139276;27;20027;-37
2021/09/23 00:54:18;;;;;;;9.35;6.82;;;11.20;72.40;;;;;;5138970;27;20093;-37
2021/09/23 00:56:43;;;;;;;11.27;7.28;;;11.20;72.40;;;;;;5139100;27;20035;-37
2021/09/23 00:59:09;;;;;;;12.25;6.78;;;11.20;72.40;;;;;;5139223;27;20052;-37
2021/09/23 01:01:35;;;;;;;13.13;7.03;;;11.20;72.50;;;;;;5139166;27;20357;-37
2021/09/23 01:04:01;;;;;;;11.27;6.32;;;11.20;72.40;;;;;;5139006;27;20026;-38
2021/09/23 01:06:26;;;;;;;9.80;6.80;;;11.20;72.40;;;;;;5138646;27;20030;-39
2021/09/23 01:08:59;;;;;;;11.27;7.05;;;11.20;72.60;;;;;;5138858;27;20027;-38
2021/09/23 01:11:28;;;;;;;10.45;7.22;;;11.20;72.70;;;;;;5138630;27;20020;-37
2021/09/23 01:13:54;;;;;;;12.35;7.32;;;11.10;72.80;;;;;;5138587;27;20038;-38
2021/09/23 01:16:20;;;;;;;10.23;7.30;;;11.10;72.80;;;;;;5138606;27;20472;-40
2021/09/23 01:18:46;;;;;;;10.32;7.45;;;11.10;72.70;;;;;;5138796;27;20039;-39
2021/09/23 01:21:12;;;;;;;20.30;8.30;;;11.10;72.80;;;;;;5138661;27;20059;-37
2021/09/23 01:23:43;;;;;;;10.27;6.82;;;11.10;72.80;;;;;;5138799;27;20487;-37
2021/09/23 01:26:11;;;;;;;14.23;7.90;;;11.10;72.80;;;;;;5138446;27;20035;-37
2021/09/23 01:28:39;;;;;;;8.88;6.75;;;11.10;72.80;;;;;;5138301;27;20031;-37
2021/09/23 01:31:06;;;;;;;10.00;7.47;;;11.10;72.90;;;;;;5138183;27;20027;-39
2021/09/23 01:33:32;;;;;;;18.35;7.38;;;11.10;72.90;;;;;;5138650;27;20422;-37
2021/09/23 01:35:59;;;;;;;9.13;6.68;;;11.10;72.90;;;;;;5138136;27;20062;-37
2021/09/23 01:38:26;;;;;;;10.63;7.22;;;11.10;72.90;;;;;;5138486;27;20034;-37
2021/09/23 01:40:52;;;;;;;11.20;7.35;;;11.10;72.90;;;;;;5138035;27;20019;-39
2021/09/23 01:43:18;;;;;;;14.02;7.65;;;11.10;73.00;;;;;;5138199;27;20042;-37
2021/09/23 01:45:45;;;;;;;11.65;6.95;;;11.10;73.10;;;;;;5137627;27;20415;-38
2021/09/23 01:48:11;;;;;;;11.93;6.88;;;11.10;73.20;;;;;;5138472;27;20121;-37
2021/09/23 01:50:37;;;;;;;9.23;6.22;;;11.10;73.00;;;;;;5138330;27;20062;-37
2021/09/23 01:53:02;;;;;;;15.73;7.28;;;11.10;72.90;;;;;;5119693;27;20029;-39
2021/09/23 01:55:28;;;;;;;9.57;7.03;;;11.10;73.60;;;;;;5137747;27;20059;-39
2021/09/23 01:57:54;;;;;;;11.90;7.75;;;11.10;73.10;;;;;;5137453;27;20027;-38
2021/09/23 02:00:19;;;;;;;9.20;6.68;;;11.10;73.30;;;;;;5137938;27;20035;-39
2021/09/23 02:02:46;;;;;;;10.52;6.75;;;11.10;73.30;;;;;;5138041;27;20303;-38
2021/09/23 02:05:12;;;;;;;12.38;6.47;;;11.10;73.30;;;;;;5137505;27;20297;-37
2021/09/23 02:07:38;;;;;;;12.35;7.03;;;11.10;73.30;;;;;;5137220;27;20032;-39
2021/09/23 02:10:04;;;;;;;8.98;6.53;;;11.10;73.30;;;;;;5137544;27;20030;-39
2021/09/23 02:12:30;;;;;;;11.07;6.70;;;11.10;73.40;;;;;;5137717;27;20038;-39
2021/09/23 02:14:56;;;;;;;8.93;6.65;;;11.10;73.50;;;;;;5137320;27;20035;-39
2021/09/23 02:17:22;;;;;;;14.15;6.95;;;11.10;73.50;;;;;;5137911;27;20027;-39
2021/09/23 02:19:47;;;;;;;16.83;7.50;;;11.10;73.40;;;;;;5137395;27;20079;-37
2021/09/23 02:22:13;;;;;;;9.82;6.70;;;11.10;73.50;;;;;;5137420;27;20062;-39
2021/09/23 02:24:39;;;;;;;10.20;7.18;;;11.20;73.40;;;;;;5137320;27;20027;-37
2021/09/23 02:27:05;;;;;;;10.40;7.22;;;11.10;73.40;;;;;;5137252;27;20027;-37
2021/09/23 02:29:31;;;;;;;9.95;7.22;;;11.10;73.40;;;;;;5136911;27;20041;-37
2021/09/23 02:31:57;;;;;;;9.60;7.35;;;11.10;73.50;;;;;;5137434;27;20489;-37
2021/09/23 02:34:22;;;;;;;11.80;7.50;;;11.10;73.50;;;;;;5137023;27;20114;-37
2021/09/23 02:36:48;;;;;;;14.65;7.43;;;11.10;73.60;;;;;;5137040;27;20065;-39
2021/09/23 02:39:14;;;;;;;12.63;6.93;;;11.10;73.50;;;;;;5136972;27;20031;-38
2021/09/23 02:41:40;;;;;;;14.70;7.38;;;11.10;73.60;;;;;;5137165;27;20035;-39
2021/09/23 02:44:05;;;;;;;12.23;7.03;;;11.10;73.70;;;;;;5137215;27;20037;-38
2021/09/23 02:46:32;;;;;;;11.50;7.25;;;11.10;73.70;;;;;;5136740;27;20031;-38
2021/09/23 02:48:58;;;;;;;10.27;7.00;;;11.10;73.70;;;;;;5136597;27;20030;-37
2021/09/23 02:51:23;;;;;;;11.35;6.93;;;11.00;73.80;;;;;;5137070;27;20027;-38
2021/09/23 02:53:49;;;;;;;9.02;6.70;;;11.10;74.00;;;;;;5136616;27;20030;-37
2021/09/23 02:56:16;;;;;;;9.93;7.15;;;11.10;73.90;;;;;;5136903;27;20418;-37
2021/09/23 02:58:43;;;;;;;10.45;7.43;;;11.10;73.90;;;;;;5136706;27;20088;-36
2021/09/23 03:01:09;;;;;;;10.65;6.78;;;11.10;74.10;;;;;;5136546;27;20055;-37
2021/09/23 03:03:35;;;;;;;14.82;7.72;;;11.10;74.10;;;;;;5136678;27;20043;-37
2021/09/23 03:06:01;;;;;;;11.55;7.45;;;11.10;74.00;;;;;;5118066;27;20038;-37
2021/09/23 03:08:26;;;;;;;15.50;7.70;;;11.10;74.00;;;;;;5136554;27;20131;-37
2021/09/23 03:10:52;;;;;;;14.02;7.85;;;11.10;74.00;;;;;;5136091;27;20030;-37
2021/09/23 03:13:18;;;;;;;11.05;6.68;;;11.10;74.10;;;;;;5136886;27;20035;-39
2021/09/23 03:15:43;;;;;;;15.25;7.63;;;11.10;74.20;;;;;;5136269;28;20027;-38
2021/09/23 03:18:09;;;;;;;11.05;7.75;;;11.10;74.20;;;;;;5136938;28;20034;-37
2021/09/23 03:20:35;;;;;;;12.82;7.85;;;11.10;74.40;;;;;;5136797;28;20035;-38
2021/09/23 03:23:00;;;;;;;11.07;8.23;;;11.10;74.60;;;;;;5136738;28;20304;-39
2021/09/23 03:25:29;;;;;;;9.30;6.90;;;11.10;74.60;;;;;;5136399;28;20042;-37
2021/09/23 03:27:55;;;;;;;10.52;6.93;;;11.10;75.20;;;;;;5136627;28;20034;-38
2021/09/23 03:30:21;;;;;;;8.45;6.63;;;11.00;74.80;;;;;;5136574;28;20027;-37
2021/09/23 03:32:46;;;;;;;14.10;7.22;;;11.10;74.90;;;;;;5136646;28;20031;-39
2021/09/23 03:35:12;;;;;;;8.70;7.03;;;11.10;74.90;;;;;;5136567;28;20126;-37
2021/09/23 03:37:38;;;;;;;10.18;6.60;;;11.10;75.00;;;;;;5136104;28;20106;-39
2021/09/23 03:40:05;;;;;;;9.20;6.43;;;11.10;75.00;;;;;;5136505;28;20039;-39
2021/09/23 03:42:31;;;;;;;8.95;7.47;;;11.10;75.10;;;;;;5136513;28;20027;-39
2021/09/23 03:44:57;;;;;;;9.30;6.95;;;11.10;75.50;;;;;;5135921;28;20146;-38
2021/09/23 03:47:23;;;;;;;9.13;6.78;;;11.10;75.70;;;;;;5136319;28;20080;-37
2021/09/23 03:49:48;;;;;;;9.07;6.95;;;11.10;75.60;;;;;;5136053;28;20035;-37
2021/09/23 03:52:14;;;;;;;10.65;6.50;;;11.10;75.70;;;;;;5136258;28;20027;-37
2021/09/23 03:54:40;;;;;;;9.15;6.57;;;11.10;75.50;;;;;;5135967;28;20392;-38
2021/09/23 03:57:05;;;;;;;10.20;7.10;;;11.00;75.50;;;;;;5135957;28;20499;-39
2021/09/23 03:59:31;;;;;;;9.45;6.53;;;11.00;75.60;;;;;;5135925;28;20039;-37
2021/09/23 04:01:57;;;;;;;10.68;7.00;;;11.00;75.80;;;;;;5135907;28;20039;-37
2021/09/23 04:04:22;;;;;;;10.93;7.10;;;10.90;76.00;;;;;;5135966;28;20037;-39
2021/09/23 04:06:48;;;;;;;11.25;7.93;;;10.90;76.30;;;;;;5136048;28;20038;-39
2021/09/23 04:09:14;;;;;;;11.40;8.07;;;10.90;76.30;;;;;;5135791;28;20080;-39
2021/09/23 04:11:40;;;;;;;11.25;8.35;;;10.90;76.30;;;;;;5136143;28;20042;-38
2021/09/23 04:14:07;;;;;;;11.82;8.52;;;10.90;76.20;;;;;;5135962;28;20162;-37
2021/09/23 04:16:33;;;;;;;17.13;9.65;;;10.90;76.20;;;;;;5135832;28;20023;-37
2021/09/23 04:18:59;;;;;;;19.05;11.15;;;10.90;76.40;;;;;;5136098;28;20087;-37
2021/09/23 04:21:25;;;;;;;15.20;9.20;;;10.90;76.70;;;;;;5138320;27;20031;-37
2021/09/23 04:23:51;;;;;;;19.38;11.02;;;10.90;76.70;;;;;;5140151;27;20039;-37
2021/09/23 04:26:18;;;;;;;18.88;11.27;;;10.90;76.60;;;;;;5139467;27;20027;-37
2021/09/23 04:28:44;;;;;;;16.95;11.60;;;10.90;76.70;;;;;;5139464;27;20411;-37
2021/09/23 04:31:10;;;;;;;18.02;11.00;;;10.90;76.90;;;;;;5139220;27;20050;-39
2021/09/23 04:33:35;;;;;;;17.80;10.40;;;10.90;76.90;;;;;;5139484;27;20042;-39
2021/09/23 04:36:01;;;;;;;16.40;10.95;;;10.90;76.90;;;;;;5138802;27;20076;-37
2021/09/23 04:38:27;;;;;;;16.05;10.13;;;10.90;77.00;;;;;;5139321;27;20043;-38
2021/09/23 04:40:53;;;;;;;15.05;10.07;;;10.90;77.00;;;;;;5139079;27;20038;-37
2021/09/23 04:43:20;;;;;;;17.70;12.05;;;10.90;76.90;;;;;;5139289;27;20039;-37
2021/09/23 04:45:47;;;;;;;16.08;9.98;;;11.00;77.30;;;;;;5138840;27;20070;-37
2021/09/23 04:48:12;;;;;;;18.50;10.68;;;11.00;77.30;;;;;;5139283;27;20031;-38
2021/09/23 04:50:38;;;;;;;15.23;10.55;;;11.00;77.40;;;;;;5138676;27;20095;-38
2021/09/23 04:53:04;;;;;;;14.13;10.75;;;11.00;77.60;;;;;;5139365;27;20019;-40
2021/09/23 04:55:29;;;;;;;12.93;9.65;;;11.00;77.50;;;;;;5138891;27;20055;-38
2021/09/23 04:57:55;;;;;;;14.90;10.10;;;11.00;77.20;;;;;;5138839;27;20073;-40
2021/09/23 05:00:21;;;;;;;14.10;9.45;;;11.10;77.40;;;;;;5139104;27;20118;-38
2021/09/23 05:02:47;;;;;;;12.52;8.88;;;11.00;77.00;;;;;;5138995;27;20039;-38
2021/09/23 05:05:13;;;;;;;14.02;8.60;;;11.10;77.00;;;;;;5138193;27;20031;-39
2021/09/23 05:07:39;;;;;;;13.90;9.35;;;11.00;76.90;;;;;;5138973;27;20041;-40
2021/09/23 05:10:05;;;;;;;15.07;8.95;;;11.00;77.00;;;;;;5138371;27;20108;-37
2021/09/23 05:12:31;;;;;;;13.32;9.15;;;11.10;77.30;;;;;;5138240;27;20079;-39
2021/09/23 05:14:57;;;;;;;12.73;8.77;;;11.10;77.30;;;;;;5138707;27;20110;-40
2021/09/23 05:17:23;;;;;;;15.32;10.02;;;11.10;77.40;;;;;;5138402;27;20027;-40
2021/09/23 05:19:49;;;;;;;14.05;9.63;;;11.10;77.00;;;;;;5138287;27;20031;-36
2021/09/23 05:22:15;;;;;;;14.80;9.02;;;11.20;76.90;;;;;;5138575;27;20083;-37
2021/09/23 05:24:43;;;;;;;15.68;10.60;;;11.20;76.90;;;;;;5138317;27;20035;-37
2021/09/23 05:27:08;;;;;;;16.25;10.20;;;11.20;77.10;;;;;;5138374;27;20105;-41
2021/09/23 05:29:34;;;;;;;16.25;10.45;;;11.30;76.70;;;;;;5138057;27;20126;-39
2021/09/23 05:32:00;;;;;;;13.70;9.70;;;11.30;76.80;;;;;;5137396;27;20039;-39
2021/09/23 05:34:25;;;;;;;15.50;9.70;;;11.30;76.60;;;;;;5138194;27;20023;-37
2021/09/23 05:36:52;;;;;;;17.63;10.50;;;11.30;76.40;;;;;;5137982;27;20039;-39
2021/09/23 05:39:17;;;;;;;15.43;10.90;;;11.30;76.20;;;;;;5137829;27;20046;-38
2021/09/23 05:41:43;;;;;;;19.40;11.40;;;11.30;76.40;;;;;;5138012;27;20031;-37
2021/09/23 05:44:10;;;;;;;16.13;11.60;;;11.40;76.40;;;;;;5138060;27;20416;-37
2021/09/23 05:46:35;;;;;;;15.45;10.80;;;11.40;76.30;;;;;;5137444;27;20046;-40
2021/09/23 05:49:02;;;;;;;15.73;10.65;;;11.40;76.00;;;;;;5137374;27;20027;-40
2021/09/23 05:51:28;;;;;;;17.17;11.68;;;11.50;75.70;;;;;;5137733;27;20065;-40
2021/09/23 05:53:54;;;;;;;20.45;11.75;;;11.50;75.60;;;;;;5137411;27;20364;-39
2021/09/23 05:56:20;;;;;;;18.35;11.15;;;11.50;75.60;;;;;;5138076;27;20058;-36
2021/09/23 05:58:45;;;;;;;16.23;11.88;;;11.50;75.40;;;;;;5137503;27;20148;-37
2021/09/23 06:01:13;;;;;;;17.75;12.20;;;11.50;75.60;;;;;;5136952;27;21878;-37
2021/09/23 06:03:39;;;;;;;16.25;11.93;;;11.50;75.30;;;;;;5137322;27;20590;-41
2021/09/23 06:06:05;;;;;;;17.65;12.73;;;11.50;75.40;;;;;;5136993;27;20027;-41
2021/09/23 06:08:30;;;;;;;21.35;12.35;;;11.50;75.40;;;;;;5137375;27;20479;-38
2021/09/23 06:10:56;;;;;;;21.00;12.20;;;11.60;75.20;;;;;;5137014;27;20035;-41
2021/09/23 06:13:22;;;;;;;17.73;12.18;;;11.60;75.30;;;;;;5137339;27;20314;-39
2021/09/23 06:15:50;;;;;;;16.38;10.48;;;11.60;75.30;;;;;;5118629;27;20387;-41
2021/09/23 06:18:15;;;;;;;19.85;10.98;;;11.70;75.10;;;;;;5137730;27;20118;-38
2021/09/23 06:20:43;;;;;;;12.32;8.52;;;11.70;75.10;;;;;;5136643;27;20111;-40
2021/09/23 06:23:09;;;;;;;14.88;10.07;;;11.80;74.60;;;;;;5137613;27;20295;-38
2021/09/23 06:25:37;;;;;;;16.67;10.38;;;11.80;74.00;;;;;;5137220;27;20030;-36
2021/09/23 06:28:03;;;;;;;13.27;8.50;;;11.90;74.00;;;;;;5137084;27;20031;-39
2021/09/23 06:30:28;;;;;;;20.67;11.93;;;11.90;74.10;;;;;;5136888;27;20027;-39
2021/09/23 06:32:54;;;;;;;13.00;9.55;;;12.00;73.80;;;;;;5137080;27;20023;-37
2021/09/23 06:35:20;;;;;;;17.23;11.23;;;12.00;73.70;;;;;;5137282;27;20035;-37
2021/09/23 06:37:47;;;;;;;11.18;8.60;;;12.00;73.50;;;;;;5136753;27;20045;-36
2021/09/23 06:40:14;;;;;;;15.38;9.45;;;12.10;72.90;;;;;;5130085;27;20034;-37
2021/09/23 06:42:41;;;;;;;13.20;8.68;;;12.10;72.70;;;;;;5136566;27;20326;-39
2021/09/23 06:45:07;;;;;;;11.55;8.20;;;12.10;72.80;;;;;;5136395;27;20419;-40
2021/09/23 06:47:34;;;;;;;11.80;8.13;;;12.10;72.80;;;;;;5136838;27;20102;-40
2021/09/23 06:50:00;;;;;;;12.60;7.80;;;12.10;72.70;;;;;;5135899;27;20092;-41
2021/09/23 06:52:26;;;;;;;10.80;7.63;;;12.20;72.70;;;;;;5136229;27;20054;-40
2021/09/23 06:54:53;;;;;;;15.13;9.18;;;12.20;72.70;;;;;;5118891;27;20090;-37
2021/09/23 06:57:19;;;;;;;15.93;10.18;;;12.20;72.70;;;;;;5116011;28;20270;-41
2021/09/23 06:59:45;;;;;;;12.00;8.77;;;12.20;72.70;;;;;;5115699;28;20035;-37
2021/09/23 07:02:10;;;;;;;13.85;9.70;;;12.20;72.40;;;;;;5116409;28;20024;-37
2021/09/23 07:04:36;;;;;;;11.07;8.35;;;12.20;72.10;;;;;;5128417;27;20032;-37
2021/09/23 07:07:02;;;;;;;12.02;7.30;;;12.20;72.20;;;;;;5120759;27;20110;-38
2021/09/23 07:09:28;;;;;;;13.38;7.60;;;12.20;71.90;;;;;;5115517;28;20035;-40
2021/09/23 07:11:55;;;;;;;9.63;7.03;;;12.20;71.80;;;;;;5115840;28;20039;-40
2021/09/23 07:14:21;;;;;;;12.98;8.48;;;12.20;71.90;;;;;;5115807;28;20110;-38
2021/09/23 07:16:47;;;;;;;10.13;7.40;;;12.30;72.10;;;;;;5115916;28;20124;-37
2021/09/23 07:19:12;;;;;;;14.02;8.10;;;12.30;72.10;;;;;;5123284;28;20035;-38
2021/09/23 07:21:39;;;;;;;9.25;6.90;;;12.30;71.80;;;;;;5135690;28;20038;-41
2021/09/23 07:24:05;;;;;;;10.63;7.00;;;12.30;71.60;;;;;;5136116;28;20078;-39
2021/09/23 07:26:31;;;;;;;10.55;7.45;;;12.30;72.20;;;;;;5136190;28;20357;-37
2021/09/23 07:28:58;;;;;;;11.23;7.40;;;12.30;71.80;;;;;;5135560;28;20300;-40
2021/09/23 07:31:24;;;;;;;14.68;8.77;;;12.40;71.80;;;;;;5135987;28;20042;-38
2021/09/23 07:33:50;;;;;;;14.32;8.02;;;12.40;71.50;;;;;;5136000;28;20043;-40
2021/09/23 07:36:17;;;;;;;14.15;8.00;;;12.40;71.50;;;;;;5130761;28;20412;-37
2021/09/23 07:38:43;;;;;;;13.13;9.00;;;12.50;71.30;;;;;;5115768;28;20031;-38
2021/09/23 07:41:09;;;;;;;16.63;10.13;;;12.50;71.30;;;;;;5114876;28;20027;-38
2021/09/23 07:43:34;;;;;;;14.93;9.25;;;12.50;71.20;;;;;;5115360;28;20080;-37
2021/09/23 07:46:00;;;;;;;12.68;8.80;;;12.50;70.90;;;;;;5114785;28;20031;-37
2021/09/23 07:48:28;;;;;;;13.75;9.20;;;12.60;70.90;;;;;;5115099;28;20028;-37
2021/09/23 07:50:54;;;;;;;15.63;9.13;;;12.60;70.70;;;;;;5114900;28;20443;-38
2021/09/23 07:53:19;;;;;;;10.88;7.65;;;12.60;70.60;;;;;;5115672;28;20106;-40
2021/09/23 07:55:46;;;;;;;13.05;8.45;;;12.70;70.80;;;;;;5115854;28;20397;-40
2021/09/23 07:58:12;;;;;;;11.82;8.65;;;12.80;70.60;;;;;;5119835;28;20103;-38
2021/09/23 08:00:38;;;;;;;12.25;8.90;;;12.80;69.90;;;;;;5119012;28;20102;-38
2021/09/23 08:03:04;;;;;;;11.98;7.75;;;12.90;70.10;;;;;;5119022;28;20376;-37
2021/09/23 08:05:30;;;;;;;12.80;8.25;;;12.90;69.70;;;;;;5118644;28;20050;-37
2021/09/23 08:07:58;;;;;;;20.00;7.65;;;13.00;69.80;;;;;;5119026;28;20051;-38
2021/09/23 08:10:25;;;;;;;10.05;7.50;;;13.10;69.80;;;;;;5118587;28;20454;-39
2021/09/23 08:12:51;;;;;;;16.50;11.85;;;13.10;69.80;;;;;;5119340;28;20144;-40
2021/09/23 08:15:17;;;;;;;12.10;6.93;;;13.20;69.80;;;;;;5118813;28;20340;-40
2021/09/23 08:17:43;;;;;;;15.50;6.90;;;13.20;69.00;;;;;;5132250;27;20023;-38
2021/09/23 08:20:09;;;;;;;9.65;6.95;;;13.20;68.80;;;;;;5139595;27;20030;-39
2021/09/23 08:22:35;;;;;;;13.23;7.97;;;13.20;69.40;;;;;;5139705;27;20080;-42
2021/09/23 08:25:01;;;;;;;12.02;8.60;;;13.10;68.90;;;;;;5139148;27;20033;-40
2021/09/23 08:27:27;;;;;;;11.85;8.55;;;13.10;68.90;;;;;;5139283;27;20039;-40
2021/09/23 08:29:53;;;;;;;11.43;7.30;;;13.10;69.10;;;;;;5139227;27;20054;-40
2021/09/23 08:32:19;;;;;;;10.57;8.02;;;13.10;69.10;;;;;;5139370;27;20033;-41
2021/09/23 08:34:46;;;;;;;8.85;6.80;;;13.10;69.00;;;;;;5139023;27;20031;-38
2021/09/23 08:37:13;;;;;;;12.95;8.20;;;13.00;69.10;;;;;;5120550;27;20386;-38
2021/09/23 08:39:38;;;;;;;12.75;7.75;;;13.00;69.10;;;;;;5138723;27;20028;-40
2021/09/23 08:42:04;;;;;;;12.25;8.85;;;13.00;69.20;;;;;;5138997;27;20118;-37
2021/09/23 08:44:30;;;;;;;13.00;8.82;;;13.00;69.10;;;;;;5138758;27;20027;-41
2021/09/23 08:46:56;;;;;;;18.55;7.00;;;13.00;69.00;;;;;;5137383;27;20039;-42
2021/09/23 08:49:22;;;;;;;11.38;7.15;;;13.00;68.90;;;;;;5138222;27;20028;-41
2021/09/23 08:51:48;;;;;;;12.18;8.18;;;13.00;68.80;;;;;;5138776;27;20019;-38
2021/09/23 08:54:17;;;;;;;9.68;7.30;;;13.00;68.90;;;;;;5138535;27;20058;-38
2021/09/23 08:56:43;;;;;;;12.38;6.30;;;13.00;69.10;;;;;;5138436;27;20079;-38
2021/09/23 08:59:08;;;;;;;12.52;8.90;;;13.00;68.70;;;;;;5138502;27;20031;-40
2021/09/23 09:01:42;;;;;;;14.32;8.45;;;13.00;68.90;;;;;;5138742;27;20090;-41
2021/09/23 09:04:08;;;;;;;11.88;7.20;;;13.00;69.00;;;;;;5138240;27;20043;-41
2021/09/23 09:06:33;;;;;;;12.68;8.10;;;13.00;68.70;;;;;;5136660;27;20023;-39
2021/09/23 09:09:02;;;;;;;12.07;7.38;;;13.00;69.00;;;;;;5137731;27;20042;-41
2021/09/23 09:11:30;;;;;;;12.75;8.80;;;13.00;69.00;;;;;;5138093;27;20133;-39
2021/09/23 09:13:56;;;;;;;16.45;11.13;;;13.00;69.30;;;;;;5137919;27;20386;-38
2021/09/23 09:16:28;;;;;;;15.57;10.50;;;13.00;69.20;;;;;;5138306;27;20357;-38
2021/09/23 09:18:57;;;;;;;17.60;12.02;;;13.00;69.50;;;;;;5137937;27;20062;-38
2021/09/23 09:21:25;;;;;;;17.00;11.88;;;13.00;69.50;;;;;;5137992;27;20422;-41
2021/09/23 09:23:58;;;;;;;20.17;13.32;;;13.10;69.70;;;;;;5137683;27;20039;-37
2021/09/23 09:26:39;;;;;;;17.73;11.88;;;13.10;70.20;;;;;;5138089;27;20303;-37
2021/09/23 09:29:07;;;;;;;16.77;11.95;;;13.20;70.60;;;;;;5137859;27;20158;-40
2021/09/23 09:31:35;;;;;;;20.40;13.13;;;13.20;70.70;;;;;;5137774;27;20027;-40
2021/09/23 09:34:02;;;;;;;20.23;13.30;;;13.20;70.50;;;;;;5137642;27;20114;-39
2021/09/23 09:36:31;;;;;;;18.30;12.18;;;13.10;70.80;;;;;;5137703;27;20019;-41
2021/09/23 09:39:00;;;;;;;18.65;13.55;;;13.10;70.80;;;;;;5138034;27;20027;-41
2021/09/23 09:41:29;;;;;;;21.48;12.65;;;13.10;70.90;;;;;;5137681;27;20107;-39
2021/09/23 09:44:00;;;;;;;21.83;11.98;;;13.10;71.30;;;;;;5138043;27;20296;-37
2021/09/23 09:46:28;;;;;;;17.95;11.57;;;13.10;71.40;;;;;;5137677;27;20031;-41
2021/09/23 09:48:54;;;;;;;16.00;11.60;;;13.00;72.10;;;;;;5137550;27;20330;-41
2021/09/23 09:51:35;;;;;;;18.17;12.18;;;13.00;71.70;;;;;;5137461;27;20027;-41
2021/09/23 09:54:02;;;;;;;15.38;11.10;;;13.00;71.90;;;;;;5137500;27;20063;-37
2021/09/23 09:56:27;;;;;;;18.08;11.43;;;13.10;71.50;;;;;;5137394;27;20027;-38
2021/09/23 09:59:14;;;;;;;15.48;11.13;;;13.10;71.40;;;;;;5137342;27;20357;-41
2021/09/23 10:01:45;;;;;;;19.20;12.50;;;13.10;71.50;;;;;;5137423;27;20035;-37
2021/09/23 10:04:12;;;;;;;16.60;12.48;;;13.10;71.00;;;;;;5137822;27;20087;-37
2021/09/23 10:06:40;;;;;;;18.55;11.88;;;13.10;70.90;;;;;;5118853;27;20024;-37
2021/09/23 10:09:07;;;;;;;22.13;12.75;;;13.10;70.70;;;;;;5137229;27;20031;-38
2021/09/23 10:11:35;;;;;;;17.63;11.70;;;13.10;70.70;;;;;;5136770;27;20028;-37
2021/09/23 10:14:02;;;;;;;19.67;13.27;;;13.00;70.40;;;;;;5137377;27;20296;-40
2021/09/23 10:16:29;;;;;;;17.17;12.27;;;13.00;70.60;;;;;;5136850;27;20034;-40
2021/09/23 10:18:56;;;;;;;16.40;11.15;;;12.90;70.40;;;;;;5137024;27;20491;-38
2021/09/23 10:21:24;;;;;;;19.40;11.43;;;12.90;70.80;;;;;;5136026;27;20024;-38
2021/09/23 10:23:51;;;;;;;18.60;10.60;;;12.90;70.90;;;;;;5137063;27;20106;-39
2021/09/23 10:26:19;;;;;;;13.10;9.32;;;12.80;70.90;;;;;;5136673;27;20426;-41
2021/09/23 10:28:48;;;;;;;14.52;10.02;;;12.80;71.10;;;;;;5136968;27;20106;-38
2021/09/23 10:31:21;;;;;;;12.02;8.38;;;12.80;71.20;;;;;;5136880;27;20311;-42
2021/09/23 10:33:48;;;;;;;13.55;8.98;;;12.80;71.00;;;;;;5136674;27;20027;-37
2021/09/23 10:36:16;;;;;;;14.18;9.93;;;12.80;71.60;;;;;;5136745;27;20042;-40
2021/09/23 10:38:44;;;;;;;11.32;8.88;;;12.90;71.90;;;;;;5136392;27;20042;-40
2021/09/23 10:41:11;;;;;;;11.48;9.13;;;12.90;72.50;;;;;;5136378;27;20031;-36
2021/09/23 10:43:40;;;;;;;13.85;10.20;;;12.90;71.50;;;;;;5136915;27;20035;-39
2021/09/23 10:46:06;;;;;;;16.98;9.90;;;12.90;71.80;;;;;;5136385;27;20246;-41
2021/09/23 10:48:36;;;;;;;12.88;8.77;;;12.90;71.50;;;;;;5136591;27;20054;-38
2021/09/23 10:51:05;;;;;;;13.45;10.13;;;13.00;71.60;;;;;;5136474;27;20374;-41
2021/09/23 10:53:33;;;;;;;14.02;9.57;;;13.00;71.70;;;;;;5136832;27;20047;-38
2021/09/23 10:56:08;;;;;;;15.52;9.55;;;13.00;72.00;;;;;;5135955;27;20055;-38
2021/09/23 10:58:34;;;;;;;10.40;8.30;;;13.00;71.90;;;;;;5136625;27;20105;-36
2021/09/23 11:01:03;;;;;;;14.77;8.85;;;13.10;71.70;;;;;;5136224;27;20369;-38
2021/09/23 11:03:39;;;;;;;8.85;7.10;;;13.20;71.10;;;;;;5135946;27;20397;-37
2021/09/23 11:06:10;;;;;;;13.93;8.15;;;13.20;70.60;;;;;;5136058;27;20023;-40
2021/09/23 11:08:44;;;;;;;10.60;7.03;;;13.30;70.30;;;;;;5136383;27;20031;-41
2021/09/23 11:11:11;;;;;;;13.60;6.78;;;13.40;69.70;;;;;;5136168;27;20031;-38
2021/09/23 11:13:39;;;;;;;10.45;7.15;;;13.40;69.20;;;;;;5136375;27;20059;-41
2021/09/23 11:16:07;;;;;;;17.15;7.45;;;13.50;68.80;;;;;;5135751;27;20447;-37
2021/09/23 11:18:34;;;;;;;8.73;6.85;;;13.50;68.10;;;;;;5136551;28;20035;-40
2021/09/23 11:21:00;;;;;;;9.48;6.97;;;13.50;67.90;;;;;;5135544;28;20323;-37
2021/09/23 11:23:27;;;;;;;9.48;6.88;;;13.60;68.10;;;;;;5134132;28;20058;-40
2021/09/23 11:25:54;;;;;;;10.15;7.07;;;13.70;68.30;;;;;;5135487;28;20019;-38
2021/09/23 11:28:21;;;;;;;15.07;8.15;;;13.70;68.50;;;;;;5136193;28;20035;-40
2021/09/23 11:30:50;;;;;;;11.13;7.88;;;13.80;67.80;;;;;;5137105;27;20027;-37
2021/09/23 11:33:17;;;;;;;10.18;7.60;;;13.90;67.20;;;;;;5139780;27;20415;-37
2021/09/23 11:35:45;;;;;;;14.30;7.90;;;14.00;67.00;;;;;;5139331;27;20426;-38
2021/09/23 11:38:15;;;;;;;13.68;8.32;;;14.00;66.40;;;;;;5140072;27;20034;-38
2021/09/23 11:40:43;;;;;;;14.98;8.90;;;14.10;66.50;;;;;;5139856;27;20066;-39
2021/09/23 11:43:11;;;;;;;15.27;9.07;;;14.10;66.50;;;;;;5140519;27;20023;-38
2021/09/23 11:45:43;;;;;;;15.85;9.85;;;14.10;66.20;;;;;;5139837;27;20176;-38
2021/09/23 11:48:17;;;;;;;15.15;10.23;;;14.10;66.20;;;;;;5140249;27;20287;-38
2021/09/23 11:50:48;;;;;;;14.20;11.43;;;14.20;65.70;;;;;;5139016;27;20453;-39
2021/09/23 11:53:23;;;;;;;16.33;12.50;;;14.20;65.40;;;;;;5140468;27;20023;-38
2021/09/23 11:56:01;;;;;;;23.60;14.48;;;14.20;65.00;;;;;;5139534;27;20050;-38
2021/09/23 11:58:28;;;;;;;18.35;13.65;;;14.10;64.60;;;;;;5139980;27;20112;-38
2021/09/23 12:00:55;;;;;;;22.30;14.07;;;14.10;64.70;;;;;;5139869;27;20072;-37
2021/09/23 12:03:22;;;;;;;20.38;14.50;;;14.00;65.00;;;;;;5139851;27;20045;-39
2021/09/23 12:05:49;;;;;;;22.02;13.77;;;14.00;64.80;;;;;;5139544;27;20336;-41
2021/09/23 12:08:16;;;;;;;17.80;14.13;;;13.90;65.20;;;;;;5140211;27;20080;-39
2021/09/23 12:10:53;;;;;;;33.38;19.83;;;13.90;65.70;;;;;;5139544;27;20035;-40
2021/09/23 12:13:37;;;;;;;27.63;20.23;;;13.90;66.10;;;;;;5140074;27;20047;-40
2021/09/23 12:16:09;;;;;;;24.13;17.60;;;13.80;66.10;;;;;;5127522;27;20055;-41
2021/09/23 12:18:36;;;;;;;28.35;18.70;;;13.80;66.10;;;;;;5139259;27;20024;-39
2021/09/23 12:21:06;;;;;;;25.98;18.92;;;13.80;66.30;;;;;;5139274;27;20035;-41
2021/09/23 12:23:40;;;;;;;21.55;16.20;;;13.80;66.30;;;;;;5139706;27;20031;-38
2021/09/23 12:26:08;;;;;;;24.35;16.75;;;13.80;66.10;;;;;;5139214;27;20080;-39
2021/09/23 12:28:38;;;;;;;28.98;19.70;;;13.70;65.90;;;;;;5139626;27;20031;-39
2021/09/23 12:31:06;;;;;;;19.80;14.52;;;13.80;66.00;;;;;;5139287;27;20027;-41
2021/09/23 12:33:33;;;;;;;18.98;14.25;;;13.70;66.30;;;;;;5139112;27;20084;-37